Pagina principală
METAR-TAF:

METAR-TAF

Aeroporturi :

Aeroportul Internațional Arad

Arad, România

Latitudine: 46-12N, longitudine: 021-24E, elevație: 117 m

Observații meteo curente

Raportul a fost făcut în urmă cu 18 de minute, la 15:30 UTC
Vânt 6 kt de la Nord/Nord-est, variabil între Nord/Nord-vest și Nord-est
Temperatură 14°C
Umiditate 36%
Presiune 1010 hPa
Vizibilitate de 10 km sau mai mult
nu există nori sub 1.500 m și nici cumulonimbus

METAR: LRAR 201530Z 02006KT 340V050 CAVOK 14/M01 Q1010

Ora: 18:48 (15:48 UTC)

Prognoză

Raportul a fost făcut în urmă cu 1 oră și 48 de minute, la 14:00 UTC
Prognoză valabilă de la 20 ora 15 UTC la 21 ora 00 UTC
Vânt 4 kt din direcții variabile
Vizibilitate de 10 km sau mai mult
nu există nori sub 1.500 m și nici cumulonimbus

TAF: LRAR 201400Z 2015/2100 VRB04KT CAVOK

Observații și prognoze meteo pentru peste 4.000 de aeroporturi (rapoarte METAR și TAF).

Stațiile disponibile sunt reprezentate pe hartă prin puncte galbene și roșii.

Țineți indicatorul mouse-ului pe punctul dorit pentru a vedea denumirea stației.

Apoi, faceți clic pentru a vedea observațiile și prognozele meteorologice.

Pentru a schimba harta: Pentru mărire, faceți clic pe butoanele verzi cu cruce neagră; pentru micșorare, pe butonul verde cu o liniuță; pentru hărți învecinate, pe săgețile verzi.


METAR-TAF: